Current | Forecast
Updated: 4:00 PM JST on April 27, 2018
Observed at Nagasaki Airport, Japan
Temperature 70°F
Humidity 49%
Dew Point 50°F
Wind North at 9 mph
Pressure 29.92 in (Steady)
Conditions Clear
Visibility -
UV N/A
Clouds
Yesterday's Maximum 72°F
Yesterday's Minimum 52°F approx.
Yesterday's Heating Degree Days 3 approx.
Sunrise5:38 AM JST
Sunset6:58 PM JST
Moon Rise4:12 PM JST
Moon Set4:05 AM JST
Moon PhaseMoon Phase
Waxing Gibbous
Raw METARMETAR RJFU 270700Z 01008KT 350V100 CAVOK 21/10 Q1013


Monday
. High: 75° F.
Tuesday
. High: 75° F.
Wednesday
. High: 71° F.
Thursday
. High: 73° F.
Friday
. High: 68° F.
Saturday
. High: 75° F.
Sunday
. High: 78° F.
Monday
. High: 78° F.

Units: English | Metric

Find the Weather for any City, State or Zipcode, or Country:

U.S. State List | Severe Weather | Tropical Storms | Ski Conditions
United States | Canada | Central America | South America | Asia | Europe | Australia | Africa | Islands

Weather Underground

© Copyright 2018
The Weather Company, LLC